SWA3725 KSTL-KDEN
Flight info
| Callsign | SWA3725 |
|---|---|
| Flight time | 1h 56m |
| Altitude | 36000 |
| Route | WHRLI7 MCM BACNN HSI BRWRY LAWGR4 |
| Aircraft | B38M/M-SADE2E3GHIJ4J7P2RWZ/LB1D1 |
Departure
| Time | 2026-05-07 01:05 |
|---|---|
| Airport | St. Louis Lambert International Airport (KSTL) |
Arrival
| Time | 2026-05-07 03:01 |
|---|---|
| Airport | Denver International Airport (KDEN) |
| Time | Latitude | Longitude | Altitude | Speed | Heading |
|---|---|---|---|---|---|
| 2026-05-07 00:33 | 38.73818 | -90.35583 | 577 ft | 0 kts | 213° |
| 2026-05-07 00:52 | 38.73821 | -90.35581 | 577 ft | 3 kts | 213° |
| 2026-05-07 00:52 | 38.73843 | -90.35564 | 580 ft | 4 kts | 208° |
| 2026-05-07 00:52 | 38.73865 | -90.35549 | 578 ft | 4 kts | 207° |
| 2026-05-07 00:52 | 38.73879 | -90.35539 | 579 ft | 0 kts | 209° |
| 2026-05-07 00:56 | 38.73877 | -90.35539 | 579 ft | 1 kts | 188° |
| 2026-05-07 00:57 | 38.73879 | -90.35520 | 579 ft | 4 kts | 36° |
| 2026-05-07 00:57 | 38.73937 | -90.35456 | 585 ft | 18 kts | 70° |
| 2026-05-07 00:57 | 38.73881 | -90.35274 | 587 ft | 27 kts | 122° |
| 2026-05-07 00:57 | 38.73763 | -90.35048 | 594 ft | 33 kts | 123° |
| 2026-05-07 00:58 | 38.73652 | -90.34821 | 600 ft | 21 kts | 116° |
| 2026-05-07 00:58 | 38.73664 | -90.34758 | 600 ft | 0 kts | 31° |
| 2026-05-07 01:00 | 38.73688 | -90.34734 | 600 ft | 7 kts | 34° |
| 2026-05-07 01:01 | 38.73694 | -90.34730 | 600 ft | 0 kts | 32° |
| 2026-05-07 01:01 | 38.73702 | -90.34723 | 600 ft | 5 kts | 32° |
| 2026-05-07 01:01 | 38.73763 | -90.34678 | 599 ft | 16 kts | 16° |
| 2026-05-07 01:02 | 38.73819 | -90.34732 | 599 ft | 0 kts | 302° |
| 2026-05-07 01:04 | 38.73820 | -90.34733 | 599 ft | 2 kts | 302° |
| 2026-05-07 01:04 | 38.73938 | -90.34972 | 594 ft | 69 kts | 302° |
| 2026-05-07 01:04 | 38.74320 | -90.35743 | 581 ft | 133 kts | 302° |
| 2026-05-07 01:04 | 38.74908 | -90.36904 | 759 ft | 166 kts | 304° |
| 2026-05-07 01:05 | 38.75546 | -90.38190 | 1355 ft | 175 kts | 303° |
| 2026-05-07 01:05 | 38.76190 | -90.39528 | 2101 ft | 174 kts | 303° |
| 2026-05-07 01:05 | 38.76831 | -90.40844 | 2696 ft | 179 kts | 304° |
| 2026-05-07 01:05 | 38.77516 | -90.42228 | 3331 ft | 189 kts | 305° |
| 2026-05-07 01:06 | 38.78249 | -90.43708 | 3978 ft | 203 kts | 305° |
| 2026-05-07 01:06 | 38.79046 | -90.45290 | 4590 ft | 219 kts | 305° |
| 2026-05-07 01:06 | 38.79893 | -90.46986 | 5236 ft | 235 kts | 304° |
| 2026-05-07 01:06 | 38.80805 | -90.48825 | 5803 ft | 254 kts | 303° |
| 2026-05-07 01:07 | 38.81776 | -90.50771 | 6599 ft | 260 kts | 303° |
| 2026-05-07 01:07 | 38.82756 | -90.52727 | 7537 ft | 263 kts | 303° |
| 2026-05-07 01:07 | 38.83752 | -90.54709 | 8433 ft | 265 kts | 303° |
| 2026-05-07 01:07 | 38.84763 | -90.56721 | 9286 ft | 269 kts | 303° |
| 2026-05-07 01:08 | 38.85779 | -90.58744 | 10166 ft | 271 kts | 302° |
| 2026-05-07 01:08 | 38.86828 | -90.60833 | 10709 ft | 288 kts | 300° |
| 2026-05-07 01:08 | 38.87949 | -90.63069 | 11056 ft | 307 kts | 300° |
| 2026-05-07 01:08 | 38.89137 | -90.65438 | 11457 ft | 323 kts | 300° |
| 2026-05-07 01:09 | 38.90367 | -90.67888 | 12151 ft | 327 kts | 299° |
| 2026-05-07 01:09 | 38.91596 | -90.70342 | 13005 ft | 328 kts | 298° |
| 2026-05-07 01:09 | 38.92837 | -90.72818 | 13804 ft | 330 kts | 297° |
| 2026-05-07 01:09 | 38.94076 | -90.75294 | 14600 ft | 331 kts | 297° |
| 2026-05-07 01:10 | 38.95325 | -90.77794 | 15337 ft | 334 kts | 296° |
| 2026-05-07 01:10 | 38.96570 | -90.80286 | 16015 ft | 337 kts | 296° |
| 2026-05-07 01:10 | 38.97837 | -90.82826 | 16718 ft | 339 kts | 296° |
| 2026-05-07 01:10 | 38.99113 | -90.85384 | 17393 ft | 341 kts | 295° |
| 2026-05-07 01:11 | 39.00396 | -90.87959 | 18035 ft | 343 kts | 295° |
| 2026-05-07 01:11 | 39.01687 | -90.90551 | 18677 ft | 345 kts | 295° |
| 2026-05-07 01:11 | 39.02986 | -90.93163 | 19278 ft | 348 kts | 295° |
| 2026-05-07 01:11 | 39.04294 | -90.95794 | 19878 ft | 350 kts | 294° |
| 2026-05-07 01:12 | 39.05610 | -90.98445 | 20433 ft | 353 kts | 294° |
| 2026-05-07 01:12 | 39.06938 | -91.01119 | 20997 ft | 356 kts | 294° |
| 2026-05-07 01:12 | 39.08268 | -91.03800 | 21568 ft | 357 kts | 294° |
| 2026-05-07 01:12 | 39.09609 | -91.06506 | 22079 ft | 359 kts | 294° |
| 2026-05-07 01:13 | 39.10822 | -91.09300 | 22556 ft | 358 kts | 290° |
| 2026-05-07 01:13 | 39.12016 | -91.12136 | 23033 ft | 361 kts | 290° |
| 2026-05-07 01:13 | 39.13228 | -91.14990 | 23502 ft | 364 kts | 290° |
| 2026-05-07 01:13 | 39.14447 | -91.17851 | 23997 ft | 366 kts | 290° |
| 2026-05-07 01:14 | 39.15258 | -91.19755 | 24306 ft | 367 kts | 290° |
| 2026-05-07 01:14 | 39.15363 | -91.20001 | 24351 ft | 367 kts | 290° |
| 2026-05-07 01:14 | 39.16583 | -91.22861 | 24801 ft | 369 kts | 290° |
| 2026-05-07 01:14 | 39.17762 | -91.25793 | 25243 ft | 368 kts | 288° |
| 2026-05-07 01:15 | 39.18926 | -91.28747 | 25646 ft | 371 kts | 288° |
| 2026-05-07 01:15 | 39.20100 | -91.31714 | 26083 ft | 372 kts | 288° |
| 2026-05-07 01:15 | 39.21277 | -91.34686 | 26495 ft | 374 kts | 288° |
| 2026-05-07 01:15 | 39.22462 | -91.37681 | 26913 ft | 375 kts | 288° |
| 2026-05-07 01:16 | 39.23647 | -91.40677 | 27332 ft | 376 kts | 288° |
| 2026-05-07 01:16 | 39.24834 | -91.43679 | 27698 ft | 377 kts | 288° |
| 2026-05-07 01:16 | 39.26029 | -91.46708 | 28041 ft | 379 kts | 287° |
| 2026-05-07 01:16 | 39.27224 | -91.49740 | 28422 ft | 380 kts | 287° |
| 2026-05-07 01:17 | 39.28429 | -91.52799 | 28812 ft | 382 kts | 287° |
| 2026-05-07 01:17 | 39.29614 | -91.55805 | 29286 ft | 379 kts | 287° |
| 2026-05-07 01:17 | 39.30800 | -91.58823 | 29823 ft | 374 kts | 286° |
| 2026-05-07 01:17 | 39.31989 | -91.61852 | 30321 ft | 373 kts | 286° |
| 2026-05-07 01:18 | 39.33154 | -91.64822 | 30833 ft | 369 kts | 285° |
| 2026-05-07 01:18 | 39.34290 | -91.67727 | 31274 ft | 367 kts | 285° |
| 2026-05-07 01:18 | 39.35441 | -91.70662 | 31740 ft | 365 kts | 285° |
| 2026-05-07 01:18 | 39.36578 | -91.73568 | 32212 ft | 361 kts | 285° |
| 2026-05-07 01:19 | 39.37707 | -91.76458 | 32625 ft | 360 kts | 284° |
| 2026-05-07 01:19 | 39.38832 | -91.79339 | 33046 ft | 358 kts | 284° |
| 2026-05-07 01:19 | 39.39948 | -91.82199 | 33471 ft | 355 kts | 284° |
| 2026-05-07 01:19 | 39.41055 | -91.85041 | 33916 ft | 352 kts | 284° |
| 2026-05-07 01:20 | 39.41798 | -91.86949 | 34198 ft | 350 kts | 284° |
| 2026-05-07 01:20 | 39.42890 | -91.89755 | 34573 ft | 349 kts | 284° |
| 2026-05-07 01:20 | 39.43983 | -91.92566 | 34808 ft | 350 kts | 284° |
| 2026-05-07 01:20 | 39.45079 | -91.95388 | 35062 ft | 351 kts | 284° |
| 2026-05-07 01:21 | 39.46160 | -91.98175 | 35327 ft | 351 kts | 284° |
| 2026-05-07 01:21 | 39.47258 | -92.01006 | 35550 ft | 353 kts | 284° |
| 2026-05-07 01:21 | 39.48361 | -92.03854 | 35727 ft | 355 kts | 285° |
| 2026-05-07 01:21 | 39.49471 | -92.06723 | 35870 ft | 357 kts | 285° |
| 2026-05-07 01:22 | 39.50584 | -92.09605 | 36046 ft | 359 kts | 285° |
| 2026-05-07 01:22 | 39.52816 | -92.15388 | 36099 ft | 359 kts | 285° |
| 2026-05-07 01:23 | 39.55046 | -92.21175 | 36101 ft | 358 kts | 285° |
| 2026-05-07 01:23 | 39.57267 | -92.26953 | 36101 ft | 358 kts | 285° |
| 2026-05-07 01:24 | 39.59486 | -92.32734 | 36103 ft | 358 kts | 285° |
| 2026-05-07 01:24 | 39.61703 | -92.38520 | 36102 ft | 358 kts | 285° |
| 2026-05-07 01:25 | 39.63920 | -92.44316 | 36103 ft | 359 kts | 285° |
| 2026-05-07 01:25 | 39.65809 | -92.49821 | 36104 ft | 351 kts | 280° |
| 2026-05-07 01:26 | 39.67521 | -92.55771 | 36100 ft | 352 kts | 281° |
| 2026-05-07 01:26 | 39.69274 | -92.61731 | 36104 ft | 353 kts | 281° |
| 2026-05-07 01:27 | 39.70997 | -92.67573 | 36101 ft | 353 kts | 281° |
| 2026-05-07 01:27 | 39.72517 | -92.72733 | 36096 ft | 352 kts | 281° |
| 2026-05-07 01:28 | 39.74269 | -92.78694 | 36100 ft | 354 kts | 281° |
| 2026-05-07 01:28 | 39.76024 | -92.84678 | 36103 ft | 354 kts | 281° |
| 2026-05-07 01:29 | 39.77775 | -92.90660 | 36098 ft | 354 kts | 281° |
| 2026-05-07 01:29 | 39.79526 | -92.96656 | 36107 ft | 355 kts | 281° |
| 2026-05-07 01:30 | 39.81277 | -93.02666 | 36112 ft | 355 kts | 281° |
| 2026-05-07 01:30 | 39.83029 | -93.08694 | 36103 ft | 356 kts | 281° |
| 2026-05-07 01:31 | 39.84780 | -93.14733 | 36102 ft | 358 kts | 281° |
| 2026-05-07 01:31 | 39.86535 | -93.20796 | 36102 ft | 358 kts | 281° |
| 2026-05-07 01:32 | 39.88288 | -93.26874 | 36107 ft | 359 kts | 281° |
| 2026-05-07 01:32 | 39.90037 | -93.32943 | 36109 ft | 360 kts | 281° |
| 2026-05-07 01:33 | 39.91684 | -93.38674 | 36109 ft | 362 kts | 281° |
| 2026-05-07 01:33 | 39.93454 | -93.44849 | 36109 ft | 364 kts | 281° |
| 2026-05-07 01:34 | 39.94594 | -93.48832 | 36110 ft | 364 kts | 282° |
| 2026-05-07 01:34 | 39.96360 | -93.55018 | 36104 ft | 364 kts | 282° |
| 2026-05-07 01:35 | 39.98124 | -93.61212 | 36111 ft | 367 kts | 282° |
| 2026-05-07 01:35 | 39.99925 | -93.67546 | 36110 ft | 378 kts | 282° |
| 2026-05-07 01:36 | 40.01768 | -93.74050 | 36111 ft | 387 kts | 282° |
| 2026-05-07 01:36 | 40.03645 | -93.80686 | 36107 ft | 393 kts | 282° |
| 2026-05-07 01:37 | 40.05547 | -93.87430 | 36106 ft | 397 kts | 282° |
| 2026-05-07 01:37 | 40.07456 | -93.94217 | 36113 ft | 400 kts | 282° |
| 2026-05-07 01:38 | 40.09374 | -94.01050 | 36110 ft | 402 kts | 282° |
| 2026-05-07 01:38 | 40.11295 | -94.07917 | 36111 ft | 403 kts | 282° |
| 2026-05-07 01:39 | 40.13219 | -94.14806 | 36109 ft | 404 kts | 282° |
| 2026-05-07 01:39 | 40.15126 | -94.21653 | 36110 ft | 404 kts | 282° |
| 2026-05-07 01:40 | 40.17045 | -94.28573 | 36109 ft | 404 kts | 281° |
| 2026-05-07 01:40 | 40.18070 | -94.35668 | 36095 ft | 397 kts | 274° |
| 2026-05-07 01:41 | 40.18953 | -94.42806 | 36100 ft | 398 kts | 274° |
| 2026-05-07 01:42 | 40.20589 | -94.56295 | 36091 ft | 391 kts | 274° |
| 2026-05-07 01:42 | 40.21429 | -94.63286 | 36087 ft | 388 kts | 274° |
| 2026-05-07 01:43 | 40.22261 | -94.70249 | 36080 ft | 385 kts | 274° |
| 2026-05-07 01:43 | 40.22665 | -94.73658 | 36085 ft | 374 kts | 273° |
| 2026-05-07 01:43 | 40.23061 | -94.76994 | 36090 ft | 369 kts | 273° |
| 2026-05-07 01:44 | 40.23845 | -94.83626 | 36084 ft | 369 kts | 273° |
| 2026-05-07 01:44 | 40.24623 | -94.90230 | 36074 ft | 370 kts | 273° |
| 2026-05-07 01:45 | 40.25402 | -94.96891 | 36073 ft | 371 kts | 273° |
| 2026-05-07 01:45 | 40.26136 | -95.03192 | 36073 ft | 372 kts | 273° |
| 2026-05-07 01:46 | 40.26913 | -95.09897 | 36072 ft | 373 kts | 273° |
| 2026-05-07 01:46 | 40.27412 | -95.14217 | 36071 ft | 373 kts | 273° |
| 2026-05-07 01:47 | 40.28187 | -95.20964 | 36074 ft | 374 kts | 273° |
| 2026-05-07 01:47 | 40.28956 | -95.27694 | 36074 ft | 374 kts | 273° |
| 2026-05-07 01:48 | 40.29724 | -95.34442 | 36072 ft | 375 kts | 273° |
| 2026-05-07 01:48 | 40.30467 | -95.41016 | 36084 ft | 375 kts | 273° |
| 2026-05-07 01:49 | 40.31227 | -95.47773 | 36083 ft | 374 kts | 273° |
| 2026-05-07 01:49 | 40.31981 | -95.54512 | 36081 ft | 374 kts | 272° |
| 2026-05-07 01:50 | 40.32730 | -95.61244 | 36082 ft | 374 kts | 272° |
| 2026-05-07 01:50 | 40.33474 | -95.67963 | 36081 ft | 374 kts | 272° |
| 2026-05-07 01:51 | 40.34218 | -95.74718 | 36082 ft | 373 kts | 272° |
| 2026-05-07 01:51 | 40.34955 | -95.81450 | 36082 ft | 373 kts | 272° |
| 2026-05-07 01:52 | 40.35689 | -95.88196 | 36082 ft | 373 kts | 272° |
| 2026-05-07 01:52 | 40.36367 | -95.94455 | 36084 ft | 373 kts | 272° |
| 2026-05-07 01:53 | 40.37097 | -96.01230 | 36080 ft | 373 kts | 272° |
| 2026-05-07 01:53 | 40.37820 | -96.07989 | 36082 ft | 375 kts | 272° |
| 2026-05-07 01:54 | 40.38542 | -96.14768 | 36080 ft | 375 kts | 272° |
| 2026-05-07 01:54 | 40.39260 | -96.21544 | 36080 ft | 376 kts | 272° |
| 2026-05-07 01:55 | 40.39975 | -96.28339 | 36081 ft | 376 kts | 272° |
| 2026-05-07 01:55 | 40.40688 | -96.35146 | 36083 ft | 377 kts | 272° |
| 2026-05-07 01:56 | 40.41398 | -96.41969 | 36084 ft | 378 kts | 272° |
| 2026-05-07 01:56 | 40.42101 | -96.48766 | 36081 ft | 378 kts | 272° |
| 2026-05-07 01:57 | 40.42807 | -96.55626 | 36081 ft | 379 kts | 272° |
| 2026-05-07 01:57 | 40.43509 | -96.62503 | 36084 ft | 381 kts | 273° |
| 2026-05-07 01:58 | 40.44141 | -96.68715 | 36084 ft | 383 kts | 273° |
| 2026-05-07 01:58 | 40.44821 | -96.75447 | 36081 ft | 394 kts | 273° |
| 2026-05-07 01:59 | 40.45547 | -96.82674 | 36080 ft | 403 kts | 273° |
| 2026-05-07 01:59 | 40.46281 | -96.90028 | 36080 ft | 409 kts | 273° |
| 2026-05-07 02:00 | 40.47020 | -96.97484 | 36079 ft | 414 kts | 273° |
| 2026-05-07 02:00 | 40.47761 | -97.05005 | 36084 ft | 417 kts | 273° |
| 2026-05-07 02:01 | 40.48501 | -97.12574 | 36083 ft | 419 kts | 274° |
| 2026-05-07 02:01 | 40.49239 | -97.20176 | 36084 ft | 420 kts | 274° |
| 2026-05-07 02:02 | 40.49969 | -97.27747 | 36082 ft | 421 kts | 274° |
| 2026-05-07 02:02 | 40.50703 | -97.35405 | 36082 ft | 422 kts | 274° |
| 2026-05-07 02:03 | 40.51432 | -97.43069 | 36083 ft | 423 kts | 274° |
| 2026-05-07 02:03 | 40.52026 | -97.49353 | 36089 ft | 423 kts | 274° |
| 2026-05-07 02:04 | 40.52742 | -97.56989 | 36082 ft | 424 kts | 274° |
| 2026-05-07 02:04 | 40.53439 | -97.64467 | 36084 ft | 424 kts | 274° |
| 2026-05-07 02:05 | 40.54150 | -97.72157 | 36082 ft | 424 kts | 274° |
| 2026-05-07 02:05 | 40.54856 | -97.79839 | 36081 ft | 423 kts | 273° |
| 2026-05-07 02:06 | 40.55525 | -97.87186 | 36081 ft | 423 kts | 273° |
| 2026-05-07 02:06 | 40.56220 | -97.94863 | 36084 ft | 422 kts | 273° |
| 2026-05-07 02:07 | 40.56909 | -98.02534 | 36082 ft | 423 kts | 273° |
| 2026-05-07 02:07 | 40.57939 | -98.14073 | 36089 ft | 424 kts | 274° |
| 2026-05-07 02:08 | 40.58621 | -98.21796 | 36091 ft | 425 kts | 274° |
| 2026-05-07 02:08 | 40.59300 | -98.29526 | 36099 ft | 426 kts | 274° |
| 2026-05-07 02:09 | 40.59975 | -98.37272 | 36099 ft | 426 kts | 274° |
| 2026-05-07 02:09 | 40.60657 | -98.45034 | 36097 ft | 427 kts | 274° |
| 2026-05-07 02:10 | 40.61318 | -98.52335 | 36099 ft | 428 kts | 274° |
| 2026-05-07 02:10 | 40.62021 | -98.60141 | 36101 ft | 430 kts | 274° |
| 2026-05-07 02:11 | 40.62716 | -98.67911 | 36098 ft | 431 kts | 274° |
| 2026-05-07 02:11 | 40.63412 | -98.75746 | 36101 ft | 432 kts | 274° |
| 2026-05-07 02:12 | 40.64105 | -98.83606 | 36099 ft | 432 kts | 274° |
| 2026-05-07 02:12 | 40.64333 | -98.86215 | 36100 ft | 433 kts | 274° |
| 2026-05-07 02:13 | 40.64797 | -98.91540 | 36099 ft | 433 kts | 274° |
| 2026-05-07 02:13 | 40.65482 | -98.99438 | 36101 ft | 435 kts | 275° |
| 2026-05-07 02:14 | 40.66164 | -99.07364 | 36101 ft | 436 kts | 275° |
| 2026-05-07 02:14 | 40.66836 | -99.15247 | 36099 ft | 437 kts | 275° |
| 2026-05-07 02:15 | 40.67509 | -99.23202 | 36101 ft | 437 kts | 275° |
| 2026-05-07 02:15 | 40.68178 | -99.31178 | 36100 ft | 438 kts | 275° |
| 2026-05-07 02:16 | 40.68843 | -99.39171 | 36101 ft | 439 kts | 275° |
| 2026-05-07 02:16 | 40.69503 | -99.47169 | 36100 ft | 438 kts | 275° |
| 2026-05-07 02:17 | 40.69821 | -99.51053 | 36106 ft | 416 kts | 274° |
| 2026-05-07 02:17 | 40.70125 | -99.54783 | 36105 ft | 406 kts | 274° |
| 2026-05-07 02:17 | 40.70722 | -99.62144 | 36092 ft | 404 kts | 274° |
| 2026-05-07 02:18 | 40.71316 | -99.69516 | 36093 ft | 405 kts | 274° |
| 2026-05-07 02:18 | 40.71905 | -99.76895 | 36091 ft | 405 kts | 274° |
| 2026-05-07 02:19 | 40.72489 | -99.84271 | 36090 ft | 405 kts | 274° |
| 2026-05-07 02:19 | 40.73068 | -99.91642 | 36090 ft | 405 kts | 274° |
| 2026-05-07 02:20 | 40.73643 | -99.99031 | 36093 ft | 405 kts | 274° |
| 2026-05-07 02:20 | 40.74216 | -100.06438 | 36086 ft | 408 kts | 275° |
| 2026-05-07 02:21 | 40.74788 | -100.13919 | 36091 ft | 411 kts | 275° |
| 2026-05-07 02:21 | 40.75356 | -100.21405 | 36090 ft | 410 kts | 275° |
| 2026-05-07 02:22 | 40.75921 | -100.28907 | 36100 ft | 411 kts | 275° |
| 2026-05-07 02:22 | 40.76480 | -100.36402 | 36100 ft | 411 kts | 275° |
| 2026-05-07 02:23 | 40.76942 | -100.42648 | 36101 ft | 412 kts | 275° |
| 2026-05-07 02:23 | 40.77497 | -100.50183 | 36100 ft | 413 kts | 275° |
| 2026-05-07 02:24 | 40.78047 | -100.57726 | 36100 ft | 413 kts | 275° |
| 2026-05-07 02:24 | 40.78491 | -100.65288 | 36095 ft | 415 kts | 266° |
| 2026-05-07 02:25 | 40.77406 | -100.72776 | 36103 ft | 417 kts | 260° |
| 2026-05-07 02:25 | 40.76187 | -100.80251 | 36100 ft | 418 kts | 259° |
| 2026-05-07 02:26 | 40.74920 | -100.87738 | 36103 ft | 418 kts | 259° |
| 2026-05-07 02:26 | 40.73640 | -100.95236 | 36101 ft | 419 kts | 259° |
| 2026-05-07 02:27 | 40.72348 | -101.02760 | 36101 ft | 421 kts | 259° |
| 2026-05-07 02:27 | 40.71054 | -101.10278 | 36099 ft | 421 kts | 259° |
| 2026-05-07 02:28 | 40.69743 | -101.17802 | 36102 ft | 422 kts | 259° |
| 2026-05-07 02:28 | 40.68424 | -101.25344 | 36095 ft | 422 kts | 259° |
| 2026-05-07 02:29 | 40.67101 | -101.32879 | 36092 ft | 422 kts | 259° |
| 2026-05-07 02:29 | 40.65781 | -101.40372 | 36098 ft | 423 kts | 259° |
| 2026-05-07 02:30 | 40.64444 | -101.47927 | 36098 ft | 424 kts | 259° |
| 2026-05-07 02:30 | 40.63102 | -101.55477 | 36102 ft | 424 kts | 259° |
| 2026-05-07 02:31 | 40.61755 | -101.63026 | 36101 ft | 424 kts | 259° |
| 2026-05-07 02:31 | 40.60403 | -101.70576 | 36102 ft | 424 kts | 259° |
| 2026-05-07 02:32 | 40.59045 | -101.78125 | 36101 ft | 424 kts | 259° |
| 2026-05-07 02:32 | 40.57684 | -101.85664 | 36099 ft | 424 kts | 259° |
| 2026-05-07 02:33 | 40.56318 | -101.93201 | 36100 ft | 424 kts | 259° |
| 2026-05-07 02:33 | 40.54936 | -102.00734 | 36101 ft | 424 kts | 259° |
| 2026-05-07 02:34 | 40.53539 | -102.08279 | 36097 ft | 427 kts | 259° |
| 2026-05-07 02:34 | 40.52126 | -102.15890 | 36101 ft | 428 kts | 259° |
| 2026-05-07 02:35 | 40.50709 | -102.23486 | 36108 ft | 428 kts | 259° |
| 2026-05-07 02:35 | 40.49284 | -102.31098 | 36117 ft | 429 kts | 259° |
| 2026-05-07 02:36 | 40.47856 | -102.38699 | 36116 ft | 429 kts | 259° |
| 2026-05-07 02:36 | 40.47138 | -102.42507 | 35888 ft | 427 kts | 259° |
| 2026-05-07 02:36 | 40.46427 | -102.46271 | 35283 ft | 424 kts | 259° |
| 2026-05-07 02:37 | 40.45716 | -102.50036 | 34558 ft | 425 kts | 259° |
| 2026-05-07 02:37 | 40.44999 | -102.53814 | 33800 ft | 427 kts | 259° |
| 2026-05-07 02:37 | 40.44279 | -102.57608 | 33029 ft | 430 kts | 260° |
| 2026-05-07 02:37 | 40.43554 | -102.61420 | 32324 ft | 430 kts | 260° |
| 2026-05-07 02:38 | 40.43382 | -102.62321 | 32221 ft | 428 kts | 260° |
| 2026-05-07 02:38 | 40.43170 | -102.63437 | 32142 ft | 424 kts | 260° |
| 2026-05-07 02:38 | 40.42611 | -102.66354 | 31956 ft | 424 kts | 260° |
| 2026-05-07 02:38 | 40.41884 | -102.70137 | 31542 ft | 429 kts | 260° |
| 2026-05-07 02:39 | 40.41153 | -102.73936 | 31192 ft | 431 kts | 261° |
| 2026-05-07 02:39 | 40.40417 | -102.77751 | 30768 ft | 430 kts | 261° |
| 2026-05-07 02:39 | 40.39694 | -102.81494 | 30306 ft | 429 kts | 261° |
| 2026-05-07 02:39 | 40.38960 | -102.85283 | 29830 ft | 428 kts | 261° |
| 2026-05-07 02:40 | 40.38220 | -102.89099 | 29379 ft | 426 kts | 261° |
| 2026-05-07 02:40 | 40.37499 | -102.92805 | 28933 ft | 424 kts | 261° |
| 2026-05-07 02:40 | 40.36773 | -102.96537 | 28475 ft | 421 kts | 261° |
| 2026-05-07 02:40 | 40.36050 | -103.00247 | 27992 ft | 418 kts | 261° |
| 2026-05-07 02:41 | 40.35337 | -103.03923 | 27471 ft | 415 kts | 261° |
| 2026-05-07 02:41 | 40.34627 | -103.07575 | 26994 ft | 412 kts | 261° |
| 2026-05-07 02:41 | 40.33923 | -103.11187 | 26554 ft | 407 kts | 261° |
| 2026-05-07 02:41 | 40.33224 | -103.14769 | 26123 ft | 403 kts | 261° |
| 2026-05-07 02:42 | 40.32532 | -103.18306 | 25697 ft | 400 kts | 261° |
| 2026-05-07 02:42 | 40.31840 | -103.21839 | 25263 ft | 400 kts | 261° |
| 2026-05-07 02:42 | 40.31148 | -103.25368 | 24837 ft | 399 kts | 260° |
| 2026-05-07 02:42 | 40.30455 | -103.28873 | 24361 ft | 396 kts | 260° |
| 2026-05-07 02:43 | 40.29764 | -103.32347 | 23934 ft | 392 kts | 260° |
| 2026-05-07 02:43 | 40.29079 | -103.35790 | 23526 ft | 389 kts | 260° |
| 2026-05-07 02:43 | 40.28399 | -103.39200 | 23116 ft | 385 kts | 259° |
| 2026-05-07 02:43 | 40.27728 | -103.42568 | 22711 ft | 381 kts | 259° |
| 2026-05-07 02:44 | 40.27058 | -103.45918 | 22304 ft | 378 kts | 259° |
| 2026-05-07 02:44 | 40.26394 | -103.49234 | 21903 ft | 375 kts | 259° |
| 2026-05-07 02:44 | 40.25735 | -103.52520 | 21505 ft | 371 kts | 259° |
| 2026-05-07 02:44 | 40.25081 | -103.55780 | 21109 ft | 368 kts | 259° |
| 2026-05-07 02:45 | 40.24442 | -103.59017 | 20651 ft | 367 kts | 259° |
| 2026-05-07 02:45 | 40.23804 | -103.62243 | 20274 ft | 364 kts | 259° |
| 2026-05-07 02:45 | 40.23173 | -103.65429 | 19908 ft | 360 kts | 259° |
| 2026-05-07 02:45 | 40.22546 | -103.68586 | 19531 ft | 356 kts | 259° |
| 2026-05-07 02:46 | 40.21925 | -103.71711 | 19153 ft | 353 kts | 259° |
| 2026-05-07 02:46 | 40.21309 | -103.74802 | 18785 ft | 350 kts | 259° |
| 2026-05-07 02:46 | 40.20697 | -103.77873 | 18407 ft | 347 kts | 259° |
| 2026-05-07 02:46 | 40.20092 | -103.80903 | 18039 ft | 343 kts | 259° |
| 2026-05-07 02:47 | 40.19491 | -103.83908 | 17674 ft | 339 kts | 259° |
| 2026-05-07 02:47 | 40.18967 | -103.86520 | 17363 ft | 331 kts | 259° |
| 2026-05-07 02:47 | 40.18405 | -103.89374 | 17004 ft | 317 kts | 262° |
| 2026-05-07 02:47 | 40.18366 | -103.92164 | 16520 ft | 301 kts | 283° |
| 2026-05-07 02:48 | 40.18775 | -103.94802 | 16152 ft | 291 kts | 283° |
| 2026-05-07 02:48 | 40.19046 | -103.96626 | 15882 ft | 287 kts | 283° |
| 2026-05-07 02:48 | 40.19437 | -103.99181 | 15498 ft | 288 kts | 284° |
| 2026-05-07 02:48 | 40.19839 | -104.01764 | 15104 ft | 290 kts | 284° |
| 2026-05-07 02:49 | 40.20247 | -104.04348 | 14724 ft | 290 kts | 284° |
| 2026-05-07 02:49 | 40.20656 | -104.06929 | 14339 ft | 290 kts | 284° |
| 2026-05-07 02:49 | 40.21066 | -104.09506 | 13949 ft | 288 kts | 284° |
| 2026-05-07 02:49 | 40.21466 | -104.12024 | 13568 ft | 278 kts | 284° |
| 2026-05-07 02:50 | 40.21855 | -104.14467 | 13201 ft | 270 kts | 284° |
| 2026-05-07 02:50 | 40.22237 | -104.16829 | 12808 ft | 263 kts | 284° |
| 2026-05-07 02:50 | 40.22607 | -104.19120 | 12455 ft | 260 kts | 284° |
| 2026-05-07 02:50 | 40.22984 | -104.21458 | 12108 ft | 259 kts | 284° |
| 2026-05-07 02:51 | 40.23356 | -104.23765 | 11749 ft | 257 kts | 284° |
| 2026-05-07 02:51 | 40.23717 | -104.26013 | 11407 ft | 249 kts | 283° |
| 2026-05-07 02:51 | 40.24063 | -104.28218 | 11111 ft | 246 kts | 279° |
| 2026-05-07 02:51 | 40.23919 | -104.30378 | 11169 ft | 238 kts | 253° |
| 2026-05-07 02:52 | 40.23249 | -104.32366 | 11073 ft | 239 kts | 248° |
| 2026-05-07 02:52 | 40.22516 | -104.34313 | 10836 ft | 239 kts | 247° |
| 2026-05-07 02:52 | 40.21789 | -104.36266 | 10597 ft | 239 kts | 247° |
| 2026-05-07 02:52 | 40.21072 | -104.38221 | 10352 ft | 239 kts | 247° |
| 2026-05-07 02:53 | 40.20373 | -104.40158 | 10114 ft | 238 kts | 247° |
| 2026-05-07 02:53 | 40.19679 | -104.42120 | 9867 ft | 237 kts | 247° |
| 2026-05-07 02:53 | 40.18995 | -104.44082 | 9634 ft | 237 kts | 247° |
| 2026-05-07 02:53 | 40.18322 | -104.46045 | 9382 ft | 235 kts | 247° |
| 2026-05-07 02:54 | 40.17671 | -104.47985 | 9136 ft | 232 kts | 248° |
| 2026-05-07 02:54 | 40.17091 | -104.49740 | 9032 ft | 229 kts | 247° |
| 2026-05-07 02:54 | 40.16467 | -104.51651 | 9001 ft | 229 kts | 248° |
| 2026-05-07 02:54 | 40.16084 | -104.52832 | 9004 ft | 229 kts | 247° |
| 2026-05-07 02:55 | 40.15461 | -104.54743 | 9019 ft | 229 kts | 247° |
| 2026-05-07 02:55 | 40.14839 | -104.56658 | 9012 ft | 228 kts | 248° |
| 2026-05-07 02:55 | 40.14219 | -104.58570 | 9017 ft | 229 kts | 248° |
| 2026-05-07 02:55 | 40.13595 | -104.60484 | 9023 ft | 229 kts | 246° |
| 2026-05-07 02:56 | 40.12665 | -104.62138 | 8959 ft | 229 kts | 218° |
| 2026-05-07 02:56 | 40.11295 | -104.63189 | 8720 ft | 229 kts | 207° |
| 2026-05-07 02:56 | 40.09846 | -104.64115 | 8426 ft | 227 kts | 207° |
| 2026-05-07 02:56 | 40.08455 | -104.65004 | 8137 ft | 225 kts | 207° |
| 2026-05-07 02:57 | 40.06999 | -104.65691 | 7962 ft | 222 kts | 191° |
| 2026-05-07 02:57 | 40.05456 | -104.65799 | 7973 ft | 224 kts | 181° |
| 2026-05-07 02:57 | 40.03893 | -104.65799 | 8025 ft | 223 kts | 181° |
| 2026-05-07 02:57 | 40.02342 | -104.65820 | 7912 ft | 223 kts | 181° |
| 2026-05-07 02:58 | 40.00821 | -104.65851 | 7665 ft | 213 kts | 181° |
| 2026-05-07 02:58 | 39.99355 | -104.65882 | 7435 ft | 209 kts | 181° |
| 2026-05-07 02:58 | 39.97920 | -104.65911 | 7246 ft | 205 kts | 181° |
| 2026-05-07 02:58 | 39.96505 | -104.65936 | 7142 ft | 200 kts | 180° |
| 2026-05-07 02:59 | 39.95128 | -104.65947 | 6981 ft | 197 kts | 180° |
| 2026-05-07 02:59 | 39.93804 | -104.65963 | 6784 ft | 190 kts | 180° |
| 2026-05-07 02:59 | 39.92493 | -104.65971 | 6547 ft | 185 kts | 180° |
| 2026-05-07 02:59 | 39.91267 | -104.65983 | 6338 ft | 169 kts | 180° |
| 2026-05-07 03:00 | 39.90098 | -104.65992 | 6121 ft | 169 kts | 180° |
| 2026-05-07 03:00 | 39.88907 | -104.66000 | 5911 ft | 174 kts | 180° |
| 2026-05-07 03:00 | 39.87695 | -104.66008 | 5706 ft | 174 kts | 180° |
| 2026-05-07 03:00 | 39.86486 | -104.66016 | 5490 ft | 171 kts | 180° |
| 2026-05-07 03:01 | 39.85366 | -104.66026 | 5404 ft | 147 kts | 180° |
| 2026-05-07 03:01 | 39.84510 | -104.66038 | 5421 ft | 91 kts | 180° |
| 2026-05-07 03:01 | 39.84042 | -104.66043 | 5428 ft | 49 kts | 181° |
| 2026-05-07 03:01 | 39.83725 | -104.66120 | 5430 ft | 44 kts | 200° |
| 2026-05-07 03:02 | 39.83660 | -104.66250 | 5429 ft | 17 kts | 340° |
| 2026-05-07 03:02 | 39.83780 | -104.66258 | 5428 ft | 18 kts | 0° |
| 2026-05-07 03:02 | 39.83927 | -104.66256 | 5425 ft | 25 kts | 0° |
| 2026-05-07 03:02 | 39.84133 | -104.66254 | 5423 ft | 34 kts | 0° |
| 2026-05-07 03:03 | 39.84377 | -104.66251 | 5419 ft | 36 kts | 0° |
| 2026-05-07 03:03 | 39.84631 | -104.66249 | 5415 ft | 37 kts | 0° |
| 2026-05-07 03:03 | 39.84895 | -104.66246 | 5399 ft | 38 kts | 0° |
| 2026-05-07 03:03 | 39.85136 | -104.66242 | 5403 ft | 30 kts | 1° |
| 2026-05-07 03:04 | 39.85353 | -104.66239 | 5400 ft | 32 kts | 1° |
| 2026-05-07 03:04 | 39.85574 | -104.66236 | 5397 ft | 32 kts | 1° |
| 2026-05-07 03:04 | 39.85796 | -104.66234 | 5390 ft | 24 kts | 0° |
| 2026-05-07 03:04 | 39.85875 | -104.66233 | 5390 ft | 0 kts | 0° |
| 2026-05-07 03:05 | 39.85878 | -104.66233 | 5390 ft | 0 kts | 1° |
| 2026-05-07 03:05 | 39.85880 | -104.66233 | 5390 ft | 1 kts | 1° |
| 2026-05-07 03:05 | 39.85906 | -104.66232 | 5390 ft | 9 kts | 1° |
| 2026-05-07 03:05 | 39.86013 | -104.66229 | 5389 ft | 21 kts | 1° |
| 2026-05-07 03:06 | 39.86130 | -104.66228 | 5386 ft | 29 kts | 0° |
| 2026-05-07 03:06 | 39.86352 | -104.66226 | 5384 ft | 33 kts | 0° |
| 2026-05-07 03:06 | 39.86500 | -104.66298 | 5382 ft | 22 kts | 277° |
| 2026-05-07 03:06 | 39.86488 | -104.66486 | 5379 ft | 19 kts | 223° |
| 2026-05-07 03:07 | 39.86408 | -104.66578 | 5379 ft | 16 kts | 264° |
| 2026-05-07 03:07 | 39.86409 | -104.66732 | 5377 ft | 17 kts | 270° |
| 2026-05-07 03:07 | 39.86409 | -104.66891 | 5379 ft | 18 kts | 270° |
| 2026-05-07 03:07 | 39.86410 | -104.67058 | 5379 ft | 19 kts | 270° |
| 2026-05-07 03:08 | 39.86375 | -104.67150 | 5379 ft | 3 kts | 208° |
| 2026-05-07 03:08 | 39.86360 | -104.67162 | 5379 ft | 0 kts | 212° |
| 2026-05-07 03:08 | 39.86358 | -104.67164 | 5379 ft | 0 kts | 212° |